Time;durP1;ratioP1;P1;durP2;ratioP2;P2;SDS_P1;SDS_P2;PMS_P1;PMS_P2;Temp;Humidity;BMP_temperature;BMP_pressure;BME280_temperature;BME280_humidity;BME280_pressure;Samples;Min_cycle;Max_cycle;Signal;HPM_P1;HPM_P2
2021/10/17 00:02:23;;;;;;;8.02;4.68;;;1.10;99.90;;;;;;5044398;28;20552;-92
2021/10/17 00:04:50;;;;;;;14.02;5.28;;;1.10;99.90;;;;;;5041952;28;20059;-93
2021/10/17 00:07:17;;;;;;;12.65;5.68;;;1.10;99.90;;;;;;5044012;28;20076;-92
2021/10/17 00:09:44;;;;;;;13.88;5.70;;;1.00;99.90;;;;;;5041633;28;20127;-92
2021/10/17 00:12:11;;;;;;;12.18;5.57;;;1.10;99.90;;;;;;5041456;28;20051;-91
2021/10/17 00:14:39;;;;;;;12.68;6.03;;;1.20;99.90;;;;;;5037758;28;20141;-92
2021/10/17 00:17:06;;;;;;;11.40;6.30;;;1.20;99.90;;;;;;5038471;28;20510;-92
2021/10/17 00:19:34;;;;;;;11.90;5.82;;;1.30;99.90;;;;;;5038606;28;20481;-92
2021/10/17 00:22:02;;;;;;;10.98;5.05;;;1.20;99.90;;;;;;5038535;28;20136;-92
2021/10/17 00:24:29;;;;;;;5.40;4.28;;;1.20;99.90;;;;;;5038618;28;20048;-91
2021/10/17 00:26:56;;;;;;;8.60;5.35;;;1.20;99.90;;;;;;5038595;28;20143;-91
2021/10/17 00:29:22;;;;;;;11.82;5.72;;;1.10;99.90;;;;;;5038485;28;20080;-92
2021/10/17 00:31:50;;;;;;;9.85;5.45;;;1.00;99.90;;;;;;5038483;28;20059;-92
2021/10/17 00:34:17;;;;;;;6.95;4.53;;;1.00;99.90;;;;;;5037833;28;20140;-92
2021/10/17 00:36:46;;;;;;;8.90;5.28;;;1.00;99.90;;;;;;5038034;28;20088;-92
2021/10/17 00:39:13;;;;;;;7.13;4.18;;;1.00;99.90;;;;;;5038275;28;20113;-92
2021/10/17 00:41:40;;;;;;;13.13;4.93;;;1.00;99.90;;;;;;5038164;28;20075;-92
2021/10/17 00:44:08;;;;;;;8.68;4.88;;;1.00;99.90;;;;;;5038703;28;20469;-92
2021/10/17 00:46:34;;;;;;;10.27;5.30;;;1.10;99.90;;;;;;5037959;28;20315;-91
2021/10/17 00:49:01;;;;;;;10.23;4.85;;;1.10;99.90;;;;;;5038452;28;20549;-92
2021/10/17 00:51:28;;;;;;;9.00;5.00;;;1.10;99.90;;;;;;5038489;28;20049;-92
2021/10/17 00:53:55;;;;;;;7.25;4.35;;;1.20;99.90;;;;;;5039097;28;20132;-93
2021/10/17 00:56:22;;;;;;;10.98;4.65;;;1.20;99.90;;;;;;5053833;28;20045;-91
2021/10/17 00:58:49;;;;;;;10.90;5.55;;;1.30;99.90;;;;;;5053984;28;20091;-92
2021/10/17 01:01:16;;;;;;;6.40;3.88;;;1.40;99.90;;;;;;5037979;28;20076;-91
2021/10/17 01:03:43;;;;;;;14.23;4.65;;;1.40;99.90;;;;;;5037475;28;20053;-92
2021/10/17 01:06:12;;;;;;;9.93;4.75;;;1.40;99.90;;;;;;5037747;28;20076;-92
2021/10/17 01:08:40;;;;;;;8.38;4.65;;;1.50;99.90;;;;;;5038041;28;20318;-92
2021/10/17 01:11:09;;;;;;;9.43;5.13;;;1.60;99.90;;;;;;5037874;28;20060;-92
2021/10/17 01:13:36;;;;;;;11.30;4.60;;;1.60;99.90;;;;;;5037116;28;20145;-92
2021/10/17 01:16:03;;;;;;;7.45;4.90;;;1.70;99.90;;;;;;5037467;28;20466;-92
2021/10/17 01:18:31;;;;;;;8.52;5.25;;;1.80;99.90;;;;;;5037355;28;20049;-92
2021/10/17 01:20:58;;;;;;;12.50;4.60;;;1.80;99.90;;;;;;5037632;28;20045;-92
2021/10/17 01:23:24;;;;;;;9.95;4.70;;;1.80;99.90;;;;;;5037522;28;20049;-91
2021/10/17 01:25:51;;;;;;;9.13;4.60;;;1.90;99.90;;;;;;5036158;28;20087;-91
2021/10/17 01:28:19;;;;;;;13.02;6.18;;;1.90;99.90;;;;;;5037505;28;20049;-92
2021/10/17 01:30:47;;;;;;;12.40;5.28;;;2.00;99.90;;;;;;5037096;28;20486;-91
2021/10/17 01:33:14;;;;;;;7.18;4.50;;;2.10;99.90;;;;;;5037168;28;20045;-91
2021/10/17 01:35:41;;;;;;;10.30;4.18;;;2.10;99.90;;;;;;5054528;28;20140;-92
2021/10/17 01:38:10;;;;;;;8.00;4.30;;;2.10;99.90;;;;;;5054829;28;20048;-91
2021/10/17 01:40:37;;;;;;;7.35;4.28;;;2.20;99.90;;;;;;5036755;28;20072;-91
2021/10/17 01:43:05;;;;;;;10.32;5.10;;;2.20;99.90;;;;;;5036951;28;20048;-92
2021/10/17 01:45:31;;;;;;;7.38;4.20;;;2.20;99.90;;;;;;5053262;28;20081;-93
2021/10/17 01:47:59;;;;;;;7.28;4.60;;;2.30;99.90;;;;;;5054454;28;20490;-92
2021/10/17 01:50:26;;;;;;;5.93;4.32;;;2.30;99.90;;;;;;5037099;28;20045;-91
2021/10/17 01:52:52;;;;;;;7.28;4.03;;;2.40;99.90;;;;;;5036628;28;20128;-92
2021/10/17 01:55:19;;;;;;;11.40;4.68;;;2.30;99.90;;;;;;5036852;28;20093;-90
2021/10/17 01:57:46;;;;;;;11.90;4.43;;;2.40;99.90;;;;;;5036272;28;20055;-92
2021/10/17 02:00:14;;;;;;;10.35;4.70;;;2.40;99.90;;;;;;5037226;28;20098;-89
2021/10/17 02:02:41;;;;;;;12.38;4.82;;;2.50;99.90;;;;;;5054094;28;20051;-92
2021/10/17 02:05:08;;;;;;;11.05;4.40;;;2.40;99.90;;;;;;5036553;28;20651;-92
2021/10/17 02:07:35;;;;;;;12.98;4.78;;;2.50;99.90;;;;;;5036343;28;20052;-91
2021/10/17 02:10:04;;;;;;;7.43;4.40;;;2.60;99.90;;;;;;5036933;28;20049;-91
2021/10/17 02:12:31;;;;;;;9.57;4.25;;;2.60;99.90;;;;;;5062241;28;20032;-92
2021/10/17 02:14:58;;;;;;;7.65;4.13;;;2.60;99.90;;;;;;5060889;28;20048;-91
2021/10/17 02:17:25;;;;;;;11.25;4.50;;;2.70;99.90;;;;;;5057740;28;20470;-91
2021/10/17 02:19:52;;;;;;;6.93;4.28;;;2.70;99.90;;;;;;5053940;28;20128;-91
2021/10/17 02:22:19;;;;;;;9.02;4.18;;;2.70;99.90;;;;;;5057992;28;20045;-92
2021/10/17 02:24:46;;;;;;;8.27;4.60;;;2.70;99.90;;;;;;5037754;28;20132;-91
2021/10/17 02:27:12;;;;;;;9.27;4.38;;;2.80;99.90;;;;;;5054016;28;20472;-92
2021/10/17 02:29:39;;;;;;;10.40;4.65;;;2.80;99.90;;;;;;5036282;28;20482;-92
2021/10/17 02:32:06;;;;;;;9.52;4.60;;;2.80;99.90;;;;;;5054110;28;20537;-91
2021/10/17 02:34:33;;;;;;;9.00;5.22;;;2.80;99.90;;;;;;5036497;28;20507;-92
2021/10/17 02:37:00;;;;;;;12.32;4.93;;;2.80;99.90;;;;;;5053322;28;20052;-91
2021/10/17 02:39:27;;;;;;;7.72;4.55;;;2.90;99.90;;;;;;5053453;28;20509;-92
2021/10/17 02:41:54;;;;;;;12.55;4.63;;;2.80;99.90;;;;;;5053511;28;20566;-91
2021/10/17 02:44:20;;;;;;;8.25;4.45;;;2.80;99.90;;;;;;5053711;28;20055;-91
2021/10/17 02:46:47;;;;;;;9.45;3.90;;;2.90;99.90;;;;;;5035981;28;20055;-91
2021/10/17 02:49:14;;;;;;;7.35;3.80;;;2.90;99.90;;;;;;5053461;28;20048;-91
2021/10/17 02:51:41;;;;;;;7.70;3.90;;;2.80;99.90;;;;;;5053151;28;20506;-91
2021/10/17 02:54:08;;;;;;;8.77;4.18;;;2.90;99.90;;;;;;5053337;28;20049;-91
2021/10/17 02:56:35;;;;;;;8.60;4.32;;;2.90;99.90;;;;;;5035986;28;20048;-91
2021/10/17 02:59:01;;;;;;;12.10;4.70;;;3.00;99.90;;;;;;5053511;28;20055;-91
2021/10/17 03:01:28;;;;;;;7.53;4.05;;;3.00;99.90;;;;;;5035913;28;20052;-91
2021/10/17 03:03:55;;;;;;;13.05;4.18;;;3.00;99.90;;;;;;5036168;28;20061;-91
2021/10/17 03:06:26;;;;;;;8.30;3.83;;;3.00;99.90;;;;;;5035546;28;20044;-91
2021/10/17 03:08:53;;;;;;;11.55;4.22;;;3.10;99.90;;;;;;5035569;28;20387;-91
2021/10/17 03:11:20;;;;;;;9.65;4.80;;;3.10;99.90;;;;;;5035625;28;20059;-91
2021/10/17 03:13:48;;;;;;;13.35;5.28;;;3.10;99.90;;;;;;5052856;28;20063;-92
2021/10/17 03:16:14;;;;;;;10.32;4.82;;;3.20;99.90;;;;;;5035855;28;20040;-91
2021/10/17 03:18:41;;;;;;;10.98;4.93;;;3.20;99.90;;;;;;5035957;28;20063;-91
2021/10/17 03:21:08;;;;;;;8.80;5.00;;;3.20;99.90;;;;;;5035906;28;20125;-91
2021/10/17 03:23:35;;;;;;;12.00;4.55;;;3.20;99.90;;;;;;5035456;28;20545;-91
2021/10/17 03:26:02;;;;;;;6.95;4.38;;;3.20;99.90;;;;;;5035561;28;20063;-91
2021/10/17 03:28:29;;;;;;;10.98;3.95;;;3.30;99.90;;;;;;5036061;28;20128;-91
2021/10/17 03:30:56;;;;;;;13.60;4.97;;;3.40;99.90;;;;;;5050071;28;20037;-91
2021/10/17 03:33:22;;;;;;;8.38;4.15;;;3.40;99.90;;;;;;5057975;28;20029;-91
2021/10/17 03:35:49;;;;;;;8.32;4.15;;;3.30;99.90;;;;;;5035776;28;20504;-92
2021/10/17 03:38:16;;;;;;;6.85;4.20;;;3.30;99.90;;;;;;5035748;28;20472;-91
2021/10/17 03:40:44;;;;;;;9.30;4.13;;;3.30;99.90;;;;;;5037592;28;20077;-91
2021/10/17 03:43:10;;;;;;;9.35;3.60;;;3.40;99.90;;;;;;5035734;28;20047;-90
2021/10/17 03:45:39;;;;;;;10.43;4.30;;;3.40;99.90;;;;;;5036860;28;20049;-92
2021/10/17 03:48:07;;;;;;;10.73;3.50;;;3.40;99.90;;;;;;5036341;28;20052;-91
2021/10/17 03:50:34;;;;;;;8.52;3.67;;;3.40;99.90;;;;;;5040229;28;20052;-91
2021/10/17 03:53:01;;;;;;;8.93;4.22;;;3.40;99.90;;;;;;5040627;28;20044;-91
2021/10/17 03:55:28;;;;;;;5.63;3.20;;;3.40;99.90;;;;;;5056312;28;20063;-91
2021/10/17 03:57:55;;;;;;;7.53;3.72;;;3.50;99.90;;;;;;5039072;28;20060;-92
2021/10/17 04:00:22;;;;;;;9.25;3.10;;;3.50;99.90;;;;;;5039116;28;20045;-91
2021/10/17 04:02:53;;;;;;;4.63;3.53;;;3.50;99.90;;;;;;5039613;28;20045;-91
2021/10/17 04:05:20;;;;;;;7.53;3.30;;;3.50;99.90;;;;;;5038875;28;20102;-91
2021/10/17 04:07:47;;;;;;;6.38;3.28;;;3.50;99.90;;;;;;5038759;28;20504;-91
2021/10/17 04:10:14;;;;;;;8.45;3.90;;;3.50;99.90;;;;;;5039234;28;20131;-91
2021/10/17 04:12:41;;;;;;;6.10;3.22;;;3.50;99.90;;;;;;5038852;28;20501;-91
2021/10/17 04:15:08;;;;;;;6.40;4.00;;;3.60;99.90;;;;;;5038796;28;20103;-91
2021/10/17 04:17:35;;;;;;;7.07;3.95;;;3.60;99.90;;;;;;5038581;28;20045;-92
2021/10/17 04:20:03;;;;;;;6.40;3.70;;;3.70;99.90;;;;;;5056143;28;20049;-91
2021/10/17 04:22:30;;;;;;;11.40;4.72;;;3.60;99.90;;;;;;5038672;28;20051;-91
2021/10/17 04:24:57;;;;;;;14.52;4.20;;;3.70;99.90;;;;;;5056219;28;20429;-92
2021/10/17 04:27:24;;;;;;;7.63;3.47;;;3.70;99.90;;;;;;5055926;28;20045;-91
2021/10/17 04:29:50;;;;;;;7.05;4.15;;;3.80;99.90;;;;;;5038189;28;20059;-92
2021/10/17 04:32:17;;;;;;;6.07;3.60;;;3.80;99.90;;;;;;5055876;28;20104;-91
2021/10/17 04:34:44;;;;;;;7.60;3.40;;;3.80;99.90;;;;;;5038394;28;20140;-91
2021/10/17 04:37:11;;;;;;;8.57;3.50;;;3.80;99.90;;;;;;5038608;28;20052;-91
2021/10/17 04:39:40;;;;;;;7.30;2.95;;;3.80;99.90;;;;;;5038335;28;20048;-91
2021/10/17 04:42:07;;;;;;;8.68;3.17;;;3.80;99.90;;;;;;5056039;28;20049;-91
2021/10/17 04:44:34;;;;;;;7.22;3.10;;;3.80;99.90;;;;;;5038751;28;20049;-91
2021/10/17 04:47:01;;;;;;;4.85;3.30;;;3.80;99.90;;;;;;5039334;28;20133;-91
2021/10/17 04:49:28;;;;;;;8.40;2.83;;;3.80;99.90;;;;;;5060670;28;20077;-91
2021/10/17 04:51:55;;;;;;;8.55;3.35;;;3.80;99.90;;;;;;5068597;28;20131;-91
2021/10/17 04:54:22;;;;;;;8.38;3.85;;;3.80;99.90;;;;;;5038130;28;20059;-91
2021/10/17 04:56:49;;;;;;;9.45;4.55;;;3.80;99.90;;;;;;5038542;28;20109;-91
2021/10/17 04:59:20;;;;;;;9.52;3.97;;;3.80;99.90;;;;;;5037793;28;20053;-92
2021/10/17 05:01:48;;;;;;;8.38;3.70;;;3.80;99.90;;;;;;5055239;28;20096;-91
2021/10/17 05:04:19;;;;;;;12.07;4.38;;;3.80;99.90;;;;;;5037882;28;20098;-91
2021/10/17 05:06:45;;;;;;;9.02;4.30;;;3.80;99.90;;;;;;5054266;28;20049;-91
2021/10/17 05:09:12;;;;;;;10.90;4.47;;;3.80;99.90;;;;;;5054162;28;20115;-92
2021/10/17 05:11:39;;;;;;;12.25;4.22;;;3.80;99.90;;;;;;5037477;28;20063;-91
2021/10/17 05:14:06;;;;;;;6.75;4.28;;;3.90;99.90;;;;;;5037830;28;20049;-91
2021/10/17 05:16:32;;;;;;;6.82;4.30;;;3.70;99.90;;;;;;5054748;28;20087;-92
2021/10/17 05:19:00;;;;;;;11.20;4.47;;;3.80;99.90;;;;;;5054084;28;20049;-91
2021/10/17 05:21:28;;;;;;;8.10;4.28;;;3.90;99.90;;;;;;5037233;28;20056;-91
2021/10/17 05:23:56;;;;;;;9.88;4.32;;;3.90;99.90;;;;;;5037437;28;20132;-91
2021/10/17 05:26:23;;;;;;;7.53;4.22;;;3.90;99.90;;;;;;5037461;28;20049;-91
2021/10/17 05:28:49;;;;;;;8.73;4.22;;;3.80;99.90;;;;;;5037461;28;20109;-91
2021/10/17 05:31:16;;;;;;;6.55;4.25;;;3.90;99.90;;;;;;5037550;28;20405;-91
2021/10/17 05:33:44;;;;;;;9.35;3.95;;;4.00;99.90;;;;;;5054463;28;20049;-92
2021/10/17 05:36:12;;;;;;;9.70;5.00;;;3.90;99.90;;;;;;5054616;28;20454;-92
2021/10/17 05:38:40;;;;;;;12.27;5.07;;;3.90;99.90;;;;;;5054409;28;20115;-92
2021/10/17 05:41:08;;;;;;;9.45;4.18;;;3.80;99.90;;;;;;5037466;28;20056;-92
2021/10/17 05:43:35;;;;;;;13.23;4.90;;;3.90;99.90;;;;;;5054637;28;20049;-92
2021/10/17 05:46:02;;;;;;;13.18;4.20;;;3.90;99.90;;;;;;5037389;28;20079;-92
2021/10/17 05:48:29;;;;;;;9.50;4.43;;;4.00;99.90;;;;;;5036922;28;20052;-92
2021/10/17 05:50:57;;;;;;;72.45;43.65;;;4.10;99.90;;;;;;5042985;28;20080;-92
2021/10/17 05:53:35;;;;;;;244.77;147.90;;;4.00;99.90;;;;;;5048573;28;20184;-92
2021/10/17 05:56:02;;;;;;;110.53;63.08;;;3.90;99.90;;;;;;5061432;28;20045;-92
2021/10/17 05:58:29;;;;;;;41.33;21.35;;;4.00;99.90;;;;;;5037161;28;20076;-92
2021/10/17 06:00:55;;;;;;;13.10;9.00;;;4.10;99.90;;;;;;5037099;28;20049;-92
2021/10/17 06:03:23;;;;;;;16.08;7.88;;;4.10;99.90;;;;;;5037042;28;20486;-92
2021/10/17 06:05:50;;;;;;;9.82;5.10;;;4.20;99.90;;;;;;5047988;28;20084;-92
2021/10/17 06:08:19;;;;;;;15.32;7.18;;;4.20;99.90;;;;;;5061686;28;20068;-91
2021/10/17 06:10:46;;;;;;;12.20;5.25;;;4.30;99.90;;;;;;5057733;28;20067;-92
2021/10/17 06:13:13;;;;;;;10.20;5.07;;;4.30;99.90;;;;;;5041396;28;20053;-91
2021/10/17 06:15:39;;;;;;;9.63;4.43;;;4.40;99.90;;;;;;5036439;28;20055;-92
2021/10/17 06:18:06;;;;;;;9.88;5.18;;;4.40;99.90;;;;;;5036376;28;20133;-92
2021/10/17 06:20:33;;;;;;;5.38;3.28;;;4.50;99.90;;;;;;5036431;28;20071;-91
2021/10/17 06:23:00;;;;;;;4.38;3.08;;;4.50;99.90;;;;;;5039037;28;20136;-92
2021/10/17 06:25:27;;;;;;;7.22;3.08;;;4.60;99.90;;;;;;5043616;28;20112;-92
2021/10/17 06:27:54;;;;;;;8.55;3.35;;;4.60;99.90;;;;;;5036422;28;20084;-92
2021/10/17 06:30:20;;;;;;;2.95;2.72;;;4.60;99.90;;;;;;5036706;28;20116;-92
2021/10/17 06:32:47;;;;;;;5.88;3.28;;;4.60;99.90;;;;;;5036301;28;20052;-92
2021/10/17 06:35:14;;;;;;;6.72;3.17;;;4.60;99.90;;;;;;5036108;28;20084;-92
2021/10/17 06:37:41;;;;;;;10.25;4.55;;;4.70;99.90;;;;;;5036360;28;20436;-92
2021/10/17 06:40:08;;;;;;;6.30;3.58;;;4.60;99.90;;;;;;5036169;28;20059;-92
2021/10/17 06:42:35;;;;;;;5.32;3.30;;;4.70;99.90;;;;;;5054021;28;20044;-92
2021/10/17 06:45:02;;;;;;;8.80;3.72;;;4.90;99.90;;;;;;5054029;28;20059;-92
2021/10/17 06:47:29;;;;;;;13.13;6.10;;;5.00;99.90;;;;;;5036071;28;20071;-92
2021/10/17 06:49:56;;;;;;;12.73;5.80;;;4.90;99.90;;;;;;5053568;28;20048;-92
2021/10/17 06:52:23;;;;;;;8.98;4.22;;;4.90;99.90;;;;;;5036351;28;20128;-92
2021/10/17 06:54:49;;;;;;;7.10;4.60;;;5.10;99.90;;;;;;5053407;28;20053;-92
2021/10/17 06:57:16;;;;;;;8.77;4.43;;;5.10;99.90;;;;;;5036028;28;20045;-92
2021/10/17 06:59:43;;;;;;;5.93;4.00;;;5.20;99.90;;;;;;5036040;28;20413;-92
2021/10/17 07:02:10;;;;;;;9.90;2.78;;;5.20;99.90;;;;;;5036073;28;20054;-92
2021/10/17 07:04:37;;;;;;;5.40;2.35;;;5.30;99.90;;;;;;5035967;28;20041;-92
2021/10/17 07:07:04;;;;;;;8.73;3.03;;;5.40;99.90;;;;;;5053558;28;20055;-92
2021/10/17 07:09:31;;;;;;;7.80;2.88;;;5.50;99.90;;;;;;5053352;28;20102;-92
2021/10/17 07:11:58;;;;;;;6.55;2.80;;;5.50;99.90;;;;;;5053747;28;20049;-92
2021/10/17 07:14:24;;;;;;;4.57;2.70;;;5.60;99.90;;;;;;5053483;28;20124;-92
2021/10/17 07:16:51;;;;;;;6.85;2.88;;;5.70;99.90;;;;;;5035580;28;20053;-92
2021/10/17 07:19:18;;;;;;;6.82;3.63;;;5.60;99.90;;;;;;5053380;28;20048;-92
2021/10/17 07:21:45;;;;;;;11.23;3.80;;;5.70;99.90;;;;;;5036742;28;20063;-92
2021/10/17 07:24:12;;;;;;;5.95;3.22;;;5.80;99.90;;;;;;5051165;28;20100;-92
2021/10/17 07:26:39;;;;;;;10.90;6.80;;;5.80;99.90;;;;;;5059035;28;20136;-92
2021/10/17 07:29:06;;;;;;;10.35;5.00;;;5.70;99.90;;;;;;5039626;28;20051;-92
2021/10/17 07:31:33;;;;;;;6.68;3.50;;;5.90;99.90;;;;;;5039281;28;20045;-92
2021/10/17 07:34:00;;;;;;;12.43;3.60;;;6.10;99.90;;;;;;5039746;28;20045;-92
2021/10/17 07:36:27;;;;;;;10.68;6.53;;;6.10;99.90;;;;;;5039282;28;20048;-92
2021/10/17 07:38:53;;;;;;;12.20;3.38;;;6.20;99.90;;;;;;5039275;28;20061;-91
2021/10/17 07:41:20;;;;;;;10.85;3.53;;;6.20;99.90;;;;;;5055764;28;20409;-92
2021/10/17 07:43:47;;;;;;;7.03;3.38;;;6.30;99.90;;;;;;5039469;28;20053;-92
2021/10/17 07:46:14;;;;;;;5.97;2.97;;;6.40;99.90;;;;;;5056830;28;20423;-92
2021/10/17 07:48:41;;;;;;;4.25;2.78;;;6.40;99.90;;;;;;5039285;28;20596;-92
2021/10/17 07:51:08;;;;;;;6.07;3.08;;;6.40;99.90;;;;;;5039081;28;20044;-92
2021/10/17 07:53:35;;;;;;;10.38;3.47;;;6.60;99.90;;;;;;5039179;28;20127;-92
2021/10/17 07:56:02;;;;;;;10.00;3.63;;;6.70;99.90;;;;;;5039047;28;20486;-91
2021/10/17 07:58:32;;;;;;;9.77;4.40;;;6.60;99.90;;;;;;5055548;28;20060;-91
2021/10/17 08:00:59;;;;;;;7.05;3.40;;;6.80;99.90;;;;;;5055515;28;20055;-92
2021/10/17 08:03:26;;;;;;;6.65;3.30;;;6.70;99.90;;;;;;5039485;28;20057;-92
2021/10/17 08:05:53;;;;;;;8.18;3.20;;;6.90;99.90;;;;;;5040406;28;20048;-92
2021/10/17 08:08:19;;;;;;;6.10;3.05;;;7.00;99.90;;;;;;5039810;28;20099;-92
2021/10/17 08:10:46;;;;;;;6.20;3.10;;;7.10;99.90;;;;;;5038879;28;20059;-92
2021/10/17 08:13:14;;;;;;;3.28;2.88;;;7.10;99.90;;;;;;5039297;28;20084;-92
2021/10/17 08:15:40;;;;;;;9.55;2.90;;;7.20;99.90;;;;;;5038492;28;20511;-92
2021/10/17 08:18:12;;;;;;;4.97;2.80;;;7.20;99.90;;;;;;5057507;28;20049;-92
2021/10/17 08:20:39;;;;;;;6.40;3.03;;;7.30;99.90;;;;;;5056206;28;20072;-92
2021/10/17 08:23:06;;;;;;;6.35;3.28;;;7.50;99.90;;;;;;5056408;28;20080;-91
2021/10/17 08:25:32;;;;;;;10.10;3.28;;;7.50;99.90;;;;;;5038132;28;20457;-92
2021/10/17 08:28:00;;;;;;;3.65;2.63;;;7.90;99.90;;;;;;5038765;28;20057;-93
2021/10/17 08:30:27;;;;;;;4.82;3.05;;;8.10;99.90;;;;;;5038448;28;20045;-92
2021/10/17 08:32:53;;;;;;;10.45;4.47;;;8.30;99.90;;;;;;5038751;28;20044;-91
2021/10/17 08:35:21;;;;;;;6.82;4.15;;;8.30;99.90;;;;;;5037296;28;20045;-91
2021/10/17 08:37:47;;;;;;;10.05;4.32;;;8.30;99.90;;;;;;5055677;28;20055;-92
2021/10/17 08:40:14;;;;;;;14.32;8.38;;;8.20;99.90;;;;;;5040937;28;20053;-92
2021/10/17 08:42:42;;;;;;;27.77;14.52;;;8.30;99.90;;;;;;5050183;28;20128;-92
2021/10/17 08:45:08;;;;;;;21.55;13.68;;;8.40;99.90;;;;;;5040577;28;20081;-91
2021/10/17 08:47:37;;;;;;;13.68;7.35;;;8.50;99.90;;;;;;5038740;28;20140;-92
2021/10/17 08:50:05;;;;;;;48.70;30.48;;;8.60;99.90;;;;;;5055809;28;20081;-93
2021/10/17 08:52:32;;;;;;;38.85;30.95;;;8.70;99.90;;;;;;5055455;28;20041;-91
2021/10/17 08:54:59;;;;;;;21.65;10.25;;;8.60;99.90;;;;;;5054699;28;20057;-92
2021/10/17 08:57:26;;;;;;;13.07;4.20;;;8.50;99.90;;;;;;5038024;28;20057;-92
2021/10/17 08:59:53;;;;;;;26.83;18.38;;;8.60;99.90;;;;;;5038195;28;20041;-91
2021/10/17 09:02:23;;;;;;;10.80;5.90;;;8.80;99.90;;;;;;5054544;28;20055;-92
2021/10/17 09:05:07;;;;;;;23.25;11.75;;;9.00;99.90;;;;;;5055266;28;20107;-92
2021/10/17 09:07:34;;;;;;;8.35;4.45;;;9.10;99.90;;;;;;5040136;28;20123;-92
2021/10/17 09:10:10;;;;;;;4.68;2.45;;;9.00;99.90;;;;;;5040495;28;20553;-92
2021/10/17 09:12:38;;;;;;;7.10;2.88;;;9.20;99.90;;;;;;5038031;28;20040;-93
2021/10/17 09:15:18;;;;;;;5.20;2.22;;;9.40;99.90;;;;;;5053954;28;20148;-93
2021/10/17 09:18:09;;;;;;;8.32;3.00;;;9.40;99.90;;;;;;5037519;28;20053;-93
2021/10/17 09:20:49;;;;;;;5.18;2.33;;;9.50;99.90;;;;;;5037554;28;20049;-92
2021/10/17 09:23:20;;;;;;;3.47;1.80;;;9.70;99.90;;;;;;5055140;28;20052;-92
2021/10/17 09:25:53;;;;;;;15.13;2.85;;;9.80;99.90;;;;;;5037083;28;20053;-92
2021/10/17 09:28:21;;;;;;;3.63;1.80;;;10.00;99.90;;;;;;5037467;28;20140;-93
2021/10/17 09:30:58;;;;;;;4.00;2.30;;;10.20;99.90;;;;;;5037458;28;20489;-93
2021/10/17 09:33:40;;;;;;;5.15;2.55;;;10.30;99.90;;;;;;5054798;28;20044;-93
2021/10/17 09:36:24;;;;;;;3.38;2.20;;;10.30;99.90;;;;;;5037223;28;20049;-93
2021/10/17 09:38:59;;;;;;;5.25;2.35;;;10.20;99.90;;;;;;5038660;28;20428;-92
2021/10/17 09:41:34;;;;;;;3.75;2.28;;;10.50;99.90;;;;;;5038344;28;20083;-90
2021/10/17 09:44:03;;;;;;;5.32;2.13;;;10.70;99.90;;;;;;5037403;28;20068;-92
2021/10/17 09:46:30;;;;;;;4.30;2.22;;;11.00;99.90;;;;;;5036253;28;20057;-91
2021/10/17 09:48:57;;;;;;;2.78;1.83;;;11.10;99.90;;;;;;5043629;28;20044;-92
2021/10/17 09:51:29;;;;;;;5.05;2.00;;;11.00;99.90;;;;;;5061991;28;20069;-92
2021/10/17 09:53:59;;;;;;;5.50;1.70;;;10.80;99.90;;;;;;5041567;28;20144;-92
2021/10/17 09:56:38;;;;;;;4.22;2.33;;;11.00;99.90;;;;;;5056212;28;20135;-91
2021/10/17 09:59:07;;;;;;;5.70;2.42;;;11.10;99.90;;;;;;5065492;28;20136;-89
2021/10/17 10:01:35;;;;;;;8.68;2.63;;;11.20;99.90;;;;;;5059248;28;20136;-90
2021/10/17 10:04:05;;;;;;;4.45;2.22;;;11.10;99.90;;;;;;5037051;28;20049;-90
2021/10/17 10:06:33;;;;;;;5.05;3.47;;;11.10;99.90;;;;;;5036536;28;20095;-89
2021/10/17 10:09:08;;;;;;;4.65;2.63;;;11.20;99.90;;;;;;5036709;28;20132;-90
2021/10/17 10:11:37;;;;;;;6.32;2.10;;;11.10;99.90;;;;;;5053724;28;20053;-90
2021/10/17 10:14:06;;;;;;;6.85;2.17;;;10.70;99.90;;;;;;5036937;28;20136;-90
2021/10/17 10:16:34;;;;;;;2.83;1.95;;;10.80;99.90;;;;;;5036343;28;20049;-90
2021/10/17 10:19:08;;;;;;;3.97;2.08;;;10.70;99.90;;;;;;5036886;28;20048;-90
2021/10/17 10:21:36;;;;;;;6.00;2.42;;;11.00;99.90;;;;;;5036103;28;20080;-90
2021/10/17 10:24:07;;;;;;;4.28;2.20;;;11.00;99.90;;;;;;5036701;28;20052;-90
2021/10/17 10:26:35;;;;;;;8.07;2.20;;;11.30;99.90;;;;;;5036338;28;20516;-90
2021/10/17 10:29:03;;;;;;;5.05;2.08;;;11.50;99.90;;;;;;5038476;28;20101;-90
2021/10/17 10:31:51;;;;;;;6.07;2.08;;;11.60;99.90;;;;;;5036795;28;20436;-90
2021/10/17 10:34:21;;;;;;;1.95;1.80;;;11.90;99.90;;;;;;5037000;28;20049;-90
2021/10/17 10:36:53;;;;;;;4.78;2.13;;;12.20;99.90;;;;;;5052855;28;20099;-90
2021/10/17 10:39:33;;;;;;;3.53;1.92;;;12.00;99.90;;;;;;5053867;28;20141;-90
2021/10/17 10:42:02;;;;;;;3.65;2.90;;;12.20;99.90;;;;;;5053771;28;20417;-90
2021/10/17 10:44:32;;;;;;;4.78;2.10;;;12.30;99.90;;;;;;5036242;28;20482;-90
2021/10/17 10:47:28;;;;;;;2.95;1.92;;;12.10;99.90;;;;;;5053134;28;20049;-90
2021/10/17 10:49:57;;;;;;;3.33;2.10;;;12.20;99.90;;;;;;5036694;28;20053;-91
2021/10/17 10:52:23;;;;;;;4.93;2.47;;;12.40;99.90;;;;;;5036255;28;20055;-91
2021/10/17 10:54:52;;;;;;;5.72;2.55;;;12.00;99.90;;;;;;5053285;28;20049;-90
2021/10/17 10:57:31;;;;;;;3.92;2.03;;;11.90;99.90;;;;;;5054481;28;20048;-90
2021/10/17 11:00:09;;;;;;;2.35;2.00;;;12.10;99.90;;;;;;5052622;28;20045;-91
2021/10/17 11:02:38;;;;;;;6.32;2.65;;;12.50;99.90;;;;;;5036093;28;20106;-90
2021/10/17 11:05:16;;;;;;;5.10;2.10;;;12.50;99.90;;;;;;5036345;28;20139;-90
2021/10/17 11:07:47;;;;;;;4.10;2.55;;;12.60;99.90;;;;;;5054374;28;20069;-90
2021/10/17 11:10:26;;;;;;;5.97;2.60;;;12.40;99.90;;;;;;5036223;28;20055;-91
2021/10/17 11:12:57;;;;;;;7.70;2.55;;;12.60;99.90;;;;;;5054450;28;20082;-91
2021/10/17 11:15:30;;;;;;;7.32;3.20;;;12.90;99.90;;;;;;5040808;28;20067;-90
2021/10/17 11:18:05;;;;;;;6.68;2.20;;;12.70;99.90;;;;;;5056400;28;20059;-90
2021/10/17 11:20:45;;;;;;;3.95;2.33;;;12.60;99.90;;;;;;5035739;28;20060;-90
2021/10/17 11:23:21;;;;;;;4.82;2.00;;;12.40;99.90;;;;;;5036353;28;20048;-90
2021/10/17 11:25:59;;;;;;;3.47;2.10;;;12.40;99.90;;;;;;5036081;28;20057;-91
2021/10/17 11:28:28;;;;;;;4.97;2.00;;;12.90;99.90;;;;;;5036220;28;20413;-90
2021/10/17 11:31:11;;;;;;;7.38;2.47;;;13.20;99.90;;;;;;5035895;28;20045;-91
2021/10/17 11:33:39;;;;;;;5.75;1.75;;;13.40;99.90;;;;;;5036306;28;20152;-90
2021/10/17 11:36:09;;;;;;;4.60;2.25;;;13.60;99.90;;;;;;5053055;28;20132;-90
2021/10/17 11:38:36;;;;;;;5.38;1.80;;;13.80;99.90;;;;;;5035807;28;20592;-90
2021/10/17 11:41:07;;;;;;;25.48;13.50;;;13.90;99.90;;;;;;5053377;28;20079;-92
2021/10/17 11:43:42;;;;;;;5.28;2.30;;;13.80;99.90;;;;;;5035620;28;20473;-90
2021/10/17 11:46:15;;;;;;;7.30;2.00;;;14.00;99.90;;;;;;5035537;28;20041;-90
2021/10/17 11:48:42;;;;;;;5.45;2.05;;;14.00;99.90;;;;;;5035550;28;20080;-91
2021/10/17 11:51:15;;;;;;;5.53;1.88;;;14.30;99.90;;;;;;5053088;28;20476;-91
2021/10/17 11:53:42;;;;;;;4.90;1.73;;;14.50;99.90;;;;;;5035418;28;20552;-91
2021/10/17 11:56:11;;;;;;;3.90;1.90;;;14.60;99.90;;;;;;5035124;28;20577;-90
2021/10/17 11:58:40;;;;;;;3.92;1.92;;;14.50;99.90;;;;;;5035264;28;20114;-90
2021/10/17 12:01:14;;;;;;;5.15;1.80;;;14.50;99.90;;;;;;5035931;28;20072;-90
2021/10/17 12:03:47;;;;;;;4.05;1.80;;;14.40;99.90;;;;;;5035149;28;20528;-90
2021/10/17 12:06:18;;;;;;;;;;;13.70;99.90;;;;;;5035738;28;20132;-91
2021/10/17 12:08:53;;;;;;;4.55;1.90;;;13.80;99.90;;;;;;5035786;28;19924;-90
2021/10/17 12:11:21;;;;;;;6.65;1.85;;;13.90;99.90;;;;;;5038590;28;20086;-90
2021/10/17 12:13:54;;;;;;;9.90;2.03;;;13.90;99.90;;;;;;5039235;28;20143;-91
2021/10/17 12:16:24;;;;;;;5.10;2.23;;;14.10;99.90;;;;;;5038798;28;20120;-90
2021/10/17 12:18:58;;;;;;;8.23;2.00;;;14.30;99.90;;;;;;5038785;28;20136;-90
2021/10/17 12:21:31;;;;;;;4.30;2.00;;;14.30;99.90;;;;;;5038840;28;20148;-90
2021/10/17 12:24:00;;;;;;;4.10;1.63;;;14.10;99.90;;;;;;5038809;28;20075;-90
2021/10/17 12:26:30;;;;;;;6.13;1.70;;;14.20;99.90;;;;;;5039050;28;20049;-91
2021/10/17 12:29:05;;;;;;;2.80;1.60;;;14.20;99.90;;;;;;5056159;28;20394;-91
2021/10/17 12:31:33;;;;;;;4.80;1.65;;;14.00;99.90;;;;;;5040618;28;20056;-91
2021/10/17 12:34:02;;;;;;;61.00;31.77;;;13.90;99.90;;;;;;5056412;28;20053;-90
2021/10/17 12:36:29;;;;;;;10.38;6.38;;;13.90;99.90;;;;;;5061614;28;20151;-89
2021/10/17 12:39:04;;;;;;;4.90;1.80;;;14.20;99.90;;;;;;5054807;28;20055;-92
2021/10/17 12:41:31;;;;;;;4.03;1.85;;;14.10;99.90;;;;;;5056429;28;20053;-89
2021/10/17 12:44:01;;;;;;;3.22;1.42;;;14.30;99.90;;;;;;5038859;28;20164;-91
2021/10/17 12:46:29;;;;;;;2.22;1.35;;;14.50;99.90;;;;;;5038272;28;20135;-90
2021/10/17 12:48:56;;;;;;;3.35;1.70;;;14.70;99.90;;;;;;5038588;28;20047;-90
2021/10/17 12:51:40;;;;;;;5.30;1.60;;;14.90;99.90;;;;;;5038492;28;20136;-90
2021/10/17 12:54:17;;;;;;;6.35;2.00;;;14.60;99.90;;;;;;5054615;28;20528;-90
2021/10/17 12:56:49;;;;;;;3.63;1.60;;;14.50;99.90;;;;;;5037945;28;20049;-91
2021/10/17 12:59:18;;;;;;;4.50;1.67;;;14.50;99.90;;;;;;5055665;28;20041;-91